sensor_id;sensor_type;location;lat;lon;timestamp;P1;durP1;ratioP1;P2;durP2;ratioP2
32323;SDS011;25666;44.350;9.222;2022-10-20T00:01:15;15.68;;;8.32;;
32323;SDS011;25666;44.350;9.222;2022-10-20T00:03:43;19.95;;;9.18;;
32323;SDS011;25666;44.350;9.222;2022-10-20T00:06:11;18.67;;;8.70;;
32323;SDS011;25666;44.350;9.222;2022-10-20T00:11:08;19.90;;;8.18;;
32323;SDS011;25666;44.350;9.222;2022-10-20T00:13:35;22.48;;;8.60;;
32323;SDS011;25666;44.350;9.222;2022-10-20T00:16:01;24.02;;;8.50;;
32323;SDS011;25666;44.350;9.222;2022-10-20T00:18:27;17.55;;;8.15;;
32323;SDS011;25666;44.350;9.222;2022-10-20T00:20:53;19.13;;;7.32;;
32323;SDS011;25666;44.350;9.222;2022-10-20T00:23:19;22.75;;;8.85;;
32323;SDS011;25666;44.350;9.222;2022-10-20T00:25:45;17.48;;;7.75;;
32323;SDS011;25666;44.350;9.222;2022-10-20T00:28:11;19.95;;;7.80;;
32323;SDS011;25666;44.350;9.222;2022-10-20T00:30:36;13.55;;;6.75;;
32323;SDS011;25666;44.350;9.222;2022-10-20T00:33:03;16.52;;;7.38;;
32323;SDS011;25666;44.350;9.222;2022-10-20T00:35:29;14.68;;;7.43;;
32323;SDS011;25666;44.350;9.222;2022-10-20T00:37:56;23.73;;;8.80;;
32323;SDS011;25666;44.350;9.222;2022-10-20T00:40:21;16.02;;;8.07;;
32323;SDS011;25666;44.350;9.222;2022-10-20T00:42:47;18.00;;;7.85;;
32323;SDS011;25666;44.350;9.222;2022-10-20T00:45:14;20.15;;;7.85;;
32323;SDS011;25666;44.350;9.222;2022-10-20T00:47:48;21.42;;;8.55;;
32323;SDS011;25666;44.350;9.222;2022-10-20T00:50:22;18.33;;;8.35;;
32323;SDS011;25666;44.350;9.222;2022-10-20T00:52:52;19.17;;;8.38;;
32323;SDS011;25666;44.350;9.222;2022-10-20T00:55:19;24.77;;;8.23;;
32323;SDS011;25666;44.350;9.222;2022-10-20T00:57:49;13.95;;;7.43;;
32323;SDS011;25666;44.350;9.222;2022-10-20T01:00:16;15.90;;;8.48;;
32323;SDS011;25666;44.350;9.222;2022-10-20T01:02:42;15.25;;;7.78;;
32323;SDS011;25666;44.350;9.222;2022-10-20T01:05:09;16.85;;;8.05;;
32323;SDS011;25666;44.350;9.222;2022-10-20T01:07:35;16.73;;;8.02;;
32323;SDS011;25666;44.350;9.222;2022-10-20T01:10:02;18.63;;;8.63;;
32323;SDS011;25666;44.350;9.222;2022-10-20T01:23:39;14.05;;;7.85;;
32323;SDS011;25666;44.350;9.222;2022-10-20T01:31:52;17.90;;;8.30;;
32323;SDS011;25666;44.350;9.222;2022-10-20T01:34:45;17.70;;;7.95;;
32323;SDS011;25666;44.350;9.222;2022-10-20T01:40:01;23.77;;;9.00;;
32323;SDS011;25666;44.350;9.222;2022-10-20T01:42:40;18.25;;;8.23;;
32323;SDS011;25666;44.350;9.222;2022-10-20T01:45:08;17.52;;;8.65;;
32323;SDS011;25666;44.350;9.222;2022-10-20T01:47:37;16.15;;;6.60;;
32323;SDS011;25666;44.350;9.222;2022-10-20T01:50:04;23.40;;;9.32;;
32323;SDS011;25666;44.350;9.222;2022-10-20T01:52:32;18.42;;;8.40;;
32323;SDS011;25666;44.350;9.222;2022-10-20T01:54:58;18.92;;;8.88;;
32323;SDS011;25666;44.350;9.222;2022-10-20T01:57:43;14.63;;;7.28;;
32323;SDS011;25666;44.350;9.222;2022-10-20T02:00:29;16.38;;;8.10;;
32323;SDS011;25666;44.350;9.222;2022-10-20T02:06:16;16.17;;;7.18;;
32323;SDS011;25666;44.350;9.222;2022-10-20T02:09:14;21.33;;;7.63;;
32323;SDS011;25666;44.350;9.222;2022-10-20T02:11:54;21.80;;;8.68;;
32323;SDS011;25666;44.350;9.222;2022-10-20T02:14:44;16.63;;;8.00;;
32323;SDS011;25666;44.350;9.222;2022-10-20T02:17:12;25.30;;;7.75;;
32323;SDS011;25666;44.350;9.222;2022-10-20T02:19:41;17.27;;;8.95;;
32323;SDS011;25666;44.350;9.222;2022-10-20T02:22:09;21.48;;;7.80;;
32323;SDS011;25666;44.350;9.222;2022-10-20T02:24:38;22.98;;;7.80;;
32323;SDS011;25666;44.350;9.222;2022-10-20T02:27:24;20.08;;;7.65;;
32323;SDS011;25666;44.350;9.222;2022-10-20T02:29:56;19.15;;;7.47;;
32323;SDS011;25666;44.350;9.222;2022-10-20T02:32:27;20.02;;;8.00;;
32323;SDS011;25666;44.350;9.222;2022-10-20T02:34:55;14.65;;;7.72;;
32323;SDS011;25666;44.350;9.222;2022-10-20T02:37:21;17.63;;;7.45;;
32323;SDS011;25666;44.350;9.222;2022-10-20T02:39:46;14.40;;;7.75;;
32323;SDS011;25666;44.350;9.222;2022-10-20T02:42:12;20.30;;;8.45;;
32323;SDS011;25666;44.350;9.222;2022-10-20T02:44:37;18.90;;;7.72;;
32323;SDS011;25666;44.350;9.222;2022-10-20T02:47:03;12.48;;;7.22;;
32323;SDS011;25666;44.350;9.222;2022-10-20T02:49:28;17.77;;;7.65;;
32323;SDS011;25666;44.350;9.222;2022-10-20T02:51:54;19.02;;;7.75;;
32323;SDS011;25666;44.350;9.222;2022-10-20T02:54:19;17.95;;;7.25;;
32323;SDS011;25666;44.350;9.222;2022-10-20T02:56:45;16.65;;;7.72;;
32323;SDS011;25666;44.350;9.222;2022-10-20T02:59:11;12.98;;;6.60;;
32323;SDS011;25666;44.350;9.222;2022-10-20T03:01:38;14.73;;;7.95;;
32323;SDS011;25666;44.350;9.222;2022-10-20T03:04:04;12.10;;;6.68;;
32323;SDS011;25666;44.350;9.222;2022-10-20T03:06:30;19.08;;;7.60;;
32323;SDS011;25666;44.350;9.222;2022-10-20T03:08:55;16.60;;;7.50;;
32323;SDS011;25666;44.350;9.222;2022-10-20T03:11:21;14.88;;;7.68;;
32323;SDS011;25666;44.350;9.222;2022-10-20T03:13:46;15.80;;;7.72;;
32323;SDS011;25666;44.350;9.222;2022-10-20T03:16:12;19.67;;;7.72;;
32323;SDS011;25666;44.350;9.222;2022-10-20T03:18:37;21.45;;;8.45;;
32323;SDS011;25666;44.350;9.222;2022-10-20T03:21:03;21.65;;;8.40;;
32323;SDS011;25666;44.350;9.222;2022-10-20T03:23:28;17.98;;;9.65;;
32323;SDS011;25666;44.350;9.222;2022-10-20T03:25:59;26.48;;;8.90;;
32323;SDS011;25666;44.350;9.222;2022-10-20T03:28:29;19.70;;;7.53;;
32323;SDS011;25666;44.350;9.222;2022-10-20T03:30:55;21.27;;;8.75;;
32323;SDS011;25666;44.350;9.222;2022-10-20T03:33:21;21.02;;;7.30;;
32323;SDS011;25666;44.350;9.222;2022-10-20T03:35:46;24.30;;;9.27;;
32323;SDS011;25666;44.350;9.222;2022-10-20T03:38:12;17.30;;;8.90;;
32323;SDS011;25666;44.350;9.222;2022-10-20T03:40:37;20.05;;;9.25;;
32323;SDS011;25666;44.350;9.222;2022-10-20T03:43:03;23.73;;;8.35;;
32323;SDS011;25666;44.350;9.222;2022-10-20T03:45:28;20.33;;;9.07;;
32323;SDS011;25666;44.350;9.222;2022-10-20T03:47:54;19.35;;;8.45;;
32323;SDS011;25666;44.350;9.222;2022-10-20T03:50:20;23.15;;;9.25;;
32323;SDS011;25666;44.350;9.222;2022-10-20T03:52:48;21.00;;;9.02;;
32323;SDS011;25666;44.350;9.222;2022-10-20T03:55:15;25.88;;;8.13;;
32323;SDS011;25666;44.350;9.222;2022-10-20T03:57:42;17.90;;;8.90;;
32323;SDS011;25666;44.350;9.222;2022-10-20T04:00:08;32.65;;;13.35;;
32323;SDS011;25666;44.350;9.222;2022-10-20T04:02:38;24.75;;;14.13;;
32323;SDS011;25666;44.350;9.222;2022-10-20T04:05:06;28.75;;;15.82;;
32323;SDS011;25666;44.350;9.222;2022-10-20T04:07:32;30.50;;;14.57;;
32323;SDS011;25666;44.350;9.222;2022-10-20T04:09:58;28.90;;;15.85;;
32323;SDS011;25666;44.350;9.222;2022-10-20T04:12:26;22.80;;;11.70;;
32323;SDS011;25666;44.350;9.222;2022-10-20T04:14:52;27.42;;;13.10;;
32323;SDS011;25666;44.350;9.222;2022-10-20T04:17:18;33.92;;;16.17;;
32323;SDS011;25666;44.350;9.222;2022-10-20T04:19:44;28.75;;;15.60;;
32323;SDS011;25666;44.350;9.222;2022-10-20T04:22:11;25.50;;;12.40;;
32323;SDS011;25666;44.350;9.222;2022-10-20T04:24:37;25.92;;;14.23;;
32323;SDS011;25666;44.350;9.222;2022-10-20T04:27:03;28.52;;;13.45;;
32323;SDS011;25666;44.350;9.222;2022-10-20T04:29:28;31.10;;;13.65;;
32323;SDS011;25666;44.350;9.222;2022-10-20T04:31:54;28.05;;;12.00;;
32323;SDS011;25666;44.350;9.222;2022-10-20T04:34:19;27.73;;;15.40;;
32323;SDS011;25666;44.350;9.222;2022-10-20T04:36:45;42.47;;;18.15;;
32323;SDS011;25666;44.350;9.222;2022-10-20T04:39:12;35.80;;;15.13;;
32323;SDS011;25666;44.350;9.222;2022-10-20T04:41:38;31.65;;;16.40;;
32323;SDS011;25666;44.350;9.222;2022-10-20T04:44:03;36.03;;;16.50;;
32323;SDS011;25666;44.350;9.222;2022-10-20T04:46:29;39.85;;;19.17;;
32323;SDS011;25666;44.350;9.222;2022-10-20T04:48:54;44.33;;;19.75;;
32323;SDS011;25666;44.350;9.222;2022-10-20T04:51:20;49.90;;;23.98;;
32323;SDS011;25666;44.350;9.222;2022-10-20T04:53:45;59.80;;;26.52;;
32323;SDS011;25666;44.350;9.222;2022-10-20T04:56:12;67.75;;;31.55;;
32323;SDS011;25666;44.350;9.222;2022-10-20T04:58:47;64.53;;;26.80;;
32323;SDS011;25666;44.350;9.222;2022-10-20T05:01:13;63.63;;;27.30;;
32323;SDS011;25666;44.350;9.222;2022-10-20T05:03:38;58.72;;;26.85;;
32323;SDS011;25666;44.350;9.222;2022-10-20T05:06:14;57.22;;;27.67;;
32323;SDS011;25666;44.350;9.222;2022-10-20T05:08:40;55.25;;;27.60;;
32323;SDS011;25666;44.350;9.222;2022-10-20T05:11:07;53.10;;;25.30;;
32323;SDS011;25666;44.350;9.222;2022-10-20T05:13:32;48.38;;;23.90;;
32323;SDS011;25666;44.350;9.222;2022-10-20T05:15:58;42.85;;;22.27;;
32323;SDS011;25666;44.350;9.222;2022-10-20T05:18:24;47.17;;;22.02;;
32323;SDS011;25666;44.350;9.222;2022-10-20T05:20:49;42.58;;;19.48;;
32323;SDS011;25666;44.350;9.222;2022-10-20T05:23:15;41.20;;;18.00;;
32323;SDS011;25666;44.350;9.222;2022-10-20T05:25:40;32.15;;;14.68;;
32323;SDS011;25666;44.350;9.222;2022-10-20T05:28:06;35.15;;;15.40;;
32323;SDS011;25666;44.350;9.222;2022-10-20T05:30:35;29.25;;;13.93;;
32323;SDS011;25666;44.350;9.222;2022-10-20T05:33:01;29.95;;;13.77;;
32323;SDS011;25666;44.350;9.222;2022-10-20T05:35:27;29.85;;;11.98;;
32323;SDS011;25666;44.350;9.222;2022-10-20T05:37:53;19.42;;;10.05;;
32323;SDS011;25666;44.350;9.222;2022-10-20T05:40:20;29.40;;;11.95;;
32323;SDS011;25666;44.350;9.222;2022-10-20T05:42:45;26.20;;;12.27;;
32323;SDS011;25666;44.350;9.222;2022-10-20T05:45:11;27.17;;;10.80;;
32323;SDS011;25666;44.350;9.222;2022-10-20T05:47:37;22.00;;;9.85;;
32323;SDS011;25666;44.350;9.222;2022-10-20T05:50:02;24.40;;;9.88;;
32323;SDS011;25666;44.350;9.222;2022-10-20T05:52:28;24.70;;;11.27;;
32323;SDS011;25666;44.350;9.222;2022-10-20T05:54:54;18.08;;;10.15;;
32323;SDS011;25666;44.350;9.222;2022-10-20T05:57:19;24.30;;;10.20;;
32323;SDS011;25666;44.350;9.222;2022-10-20T05:59:45;24.67;;;10.70;;
32323;SDS011;25666;44.350;9.222;2022-10-20T06:02:10;29.13;;;10.60;;
32323;SDS011;25666;44.350;9.222;2022-10-20T06:04:36;19.75;;;8.98;;
32323;SDS011;25666;44.350;9.222;2022-10-20T06:07:02;26.73;;;9.13;;
32323;SDS011;25666;44.350;9.222;2022-10-20T06:09:30;17.15;;;7.97;;
32323;SDS011;25666;44.350;9.222;2022-10-20T06:11:57;16.70;;;8.57;;
32323;SDS011;25666;44.350;9.222;2022-10-20T06:14:23;19.20;;;8.05;;
32323;SDS011;25666;44.350;9.222;2022-10-20T06:16:53;20.98;;;8.88;;
32323;SDS011;25666;44.350;9.222;2022-10-20T06:19:19;20.65;;;8.27;;
32323;SDS011;25666;44.350;9.222;2022-10-20T06:21:45;20.27;;;8.82;;
32323;SDS011;25666;44.350;9.222;2022-10-20T06:24:11;16.80;;;8.63;;
32323;SDS011;25666;44.350;9.222;2022-10-20T06:26:37;14.95;;;7.53;;
32323;SDS011;25666;44.350;9.222;2022-10-20T06:29:04;13.98;;;6.95;;
32323;SDS011;25666;44.350;9.222;2022-10-20T06:31:32;16.20;;;7.55;;
32323;SDS011;25666;44.350;9.222;2022-10-20T06:36:34;16.52;;;6.55;;
32323;SDS011;25666;44.350;9.222;2022-10-20T06:39:02;18.80;;;7.47;;
32323;SDS011;25666;44.350;9.222;2022-10-20T06:41:29;16.77;;;8.10;;
32323;SDS011;25666;44.350;9.222;2022-10-20T06:43:55;20.98;;;9.40;;
32323;SDS011;25666;44.350;9.222;2022-10-20T06:46:25;14.23;;;7.65;;
32323;SDS011;25666;44.350;9.222;2022-10-20T06:48:52;15.07;;;7.60;;
32323;SDS011;25666;44.350;9.222;2022-10-20T06:51:18;20.80;;;7.50;;
32323;SDS011;25666;44.350;9.222;2022-10-20T06:53:46;17.73;;;8.07;;
32323;SDS011;25666;44.350;9.222;2022-10-20T06:56:16;21.60;;;9.00;;
32323;SDS011;25666;44.350;9.222;2022-10-20T06:58:44;19.25;;;9.02;;
32323;SDS011;25666;44.350;9.222;2022-10-20T07:01:21;22.23;;;8.95;;
32323;SDS011;25666;44.350;9.222;2022-10-20T07:03:49;24.67;;;9.18;;
32323;SDS011;25666;44.350;9.222;2022-10-20T07:06:16;23.67;;;9.93;;
32323;SDS011;25666;44.350;9.222;2022-10-20T07:08:44;21.10;;;9.82;;
32323;SDS011;25666;44.350;9.222;2022-10-20T07:11:11;17.88;;;10.27;;
32323;SDS011;25666;44.350;9.222;2022-10-20T07:13:42;66.47;;;15.48;;
32323;SDS011;25666;44.350;9.222;2022-10-20T07:16:08;55.13;;;12.25;;
32323;SDS011;25666;44.350;9.222;2022-10-20T07:18:36;30.45;;;10.75;;
32323;SDS011;25666;44.350;9.222;2022-10-20T07:21:03;20.75;;;9.23;;
32323;SDS011;25666;44.350;9.222;2022-10-20T07:23:32;26.48;;;10.63;;
32323;SDS011;25666;44.350;9.222;2022-10-20T07:26:02;29.90;;;10.82;;
32323;SDS011;25666;44.350;9.222;2022-10-20T07:28:29;23.27;;;10.40;;
32323;SDS011;25666;44.350;9.222;2022-10-20T07:30:55;30.98;;;11.02;;
32323;SDS011;25666;44.350;9.222;2022-10-20T07:33:21;18.75;;;8.95;;
32323;SDS011;25666;44.350;9.222;2022-10-20T07:35:47;25.83;;;9.85;;
32323;SDS011;25666;44.350;9.222;2022-10-20T07:38:13;21.48;;;9.90;;
32323;SDS011;25666;44.350;9.222;2022-10-20T07:40:38;21.02;;;9.65;;
32323;SDS011;25666;44.350;9.222;2022-10-20T07:43:03;21.58;;;9.30;;
32323;SDS011;25666;44.350;9.222;2022-10-20T07:45:29;30.73;;;12.68;;
32323;SDS011;25666;44.350;9.222;2022-10-20T07:47:55;32.30;;;11.60;;
32323;SDS011;25666;44.350;9.222;2022-10-20T07:50:20;28.98;;;12.65;;
32323;SDS011;25666;44.350;9.222;2022-10-20T07:52:49;28.02;;;13.07;;
32323;SDS011;25666;44.350;9.222;2022-10-20T07:55:16;30.27;;;12.70;;
32323;SDS011;25666;44.350;9.222;2022-10-20T07:57:41;41.83;;;12.10;;
32323;SDS011;25666;44.350;9.222;2022-10-20T08:00:07;33.28;;;13.93;;
32323;SDS011;25666;44.350;9.222;2022-10-20T08:02:37;32.22;;;10.68;;
32323;SDS011;25666;44.350;9.222;2022-10-20T08:05:05;40.30;;;10.70;;
32323;SDS011;25666;44.350;9.222;2022-10-20T08:07:31;26.38;;;11.02;;
32323;SDS011;25666;44.350;9.222;2022-10-20T08:09:57;23.83;;;9.93;;
32323;SDS011;25666;44.350;9.222;2022-10-20T08:12:22;27.77;;;9.70;;
32323;SDS011;25666;44.350;9.222;2022-10-20T08:14:48;29.95;;;11.13;;
32323;SDS011;25666;44.350;9.222;2022-10-20T08:17:13;23.15;;;9.85;;
32323;SDS011;25666;44.350;9.222;2022-10-20T08:19:39;21.17;;;9.60;;
32323;SDS011;25666;44.350;9.222;2022-10-20T08:22:04;17.50;;;9.77;;
32323;SDS011;25666;44.350;9.222;2022-10-20T08:24:30;22.02;;;9.23;;
32323;SDS011;25666;44.350;9.222;2022-10-20T08:26:55;20.08;;;9.32;;
32323;SDS011;25666;44.350;9.222;2022-10-20T08:29:21;20.40;;;8.55;;
32323;SDS011;25666;44.350;9.222;2022-10-20T08:31:46;22.70;;;9.15;;
32323;SDS011;25666;44.350;9.222;2022-10-20T08:34:12;21.70;;;9.23;;
32323;SDS011;25666;44.350;9.222;2022-10-20T08:36:37;23.70;;;8.25;;
32323;SDS011;25666;44.350;9.222;2022-10-20T08:39:03;18.67;;;7.85;;
32323;SDS011;25666;44.350;9.222;2022-10-20T08:41:31;19.33;;;9.13;;
32323;SDS011;25666;44.350;9.222;2022-10-20T08:44:00;20.38;;;8.63;;
32323;SDS011;25666;44.350;9.222;2022-10-20T08:46:30;19.52;;;9.15;;
32323;SDS011;25666;44.350;9.222;2022-10-20T08:48:58;19.58;;;9.13;;
32323;SDS011;25666;44.350;9.222;2022-10-20T08:51:26;20.08;;;9.35;;
32323;SDS011;25666;44.350;9.222;2022-10-20T08:53:55;22.40;;;9.75;;
32323;SDS011;25666;44.350;9.222;2022-10-20T08:56:24;20.95;;;9.38;;
32323;SDS011;25666;44.350;9.222;2022-10-20T08:58:52;20.00;;;9.35;;
32323;SDS011;25666;44.350;9.222;2022-10-20T09:01:22;17.23;;;9.60;;
32323;SDS011;25666;44.350;9.222;2022-10-20T09:06:18;24.88;;;9.60;;
32323;SDS011;25666;44.350;9.222;2022-10-20T09:08:44;25.65;;;11.93;;
32323;SDS011;25666;44.350;9.222;2022-10-20T09:11:15;22.45;;;11.00;;
32323;SDS011;25666;44.350;9.222;2022-10-20T09:13:43;25.75;;;10.80;;
32323;SDS011;25666;44.350;9.222;2022-10-20T09:16:12;31.25;;;12.27;;
32323;SDS011;25666;44.350;9.222;2022-10-20T09:18:42;19.75;;;10.27;;
32323;SDS011;25666;44.350;9.222;2022-10-20T09:21:12;16.15;;;8.70;;
32323;SDS011;25666;44.350;9.222;2022-10-20T09:23:44;21.67;;;9.25;;
32323;SDS011;25666;44.350;9.222;2022-10-20T09:26:27;17.02;;;8.63;;
32323;SDS011;25666;44.350;9.222;2022-10-20T09:29:14;11.82;;;7.88;;
32323;SDS011;25666;44.350;9.222;2022-10-20T09:31:47;16.15;;;8.20;;
32323;SDS011;25666;44.350;9.222;2022-10-20T09:34:28;15.88;;;7.57;;
32323;SDS011;25666;44.350;9.222;2022-10-20T09:39:23;17.50;;;7.35;;
32323;SDS011;25666;44.350;9.222;2022-10-20T09:42:00;14.75;;;7.70;;
32323;SDS011;25666;44.350;9.222;2022-10-20T09:44:29;10.93;;;6.50;;
32323;SDS011;25666;44.350;9.222;2022-10-20T09:47:09;17.25;;;7.50;;
32323;SDS011;25666;44.350;9.222;2022-10-20T09:49:38;11.38;;;6.43;;
32323;SDS011;25666;44.350;9.222;2022-10-20T09:52:13;16.75;;;7.63;;
32323;SDS011;25666;44.350;9.222;2022-10-20T09:54:44;14.45;;;7.68;;
32323;SDS011;25666;44.350;9.222;2022-10-20T09:57:15;14.88;;;7.53;;
32323;SDS011;25666;44.350;9.222;2022-10-20T09:59:46;15.93;;;7.18;;
32323;SDS011;25666;44.350;9.222;2022-10-20T10:04:43;15.98;;;7.32;;
32323;SDS011;25666;44.350;9.222;2022-10-20T10:12:28;12.85;;;7.00;;
32323;SDS011;25666;44.350;9.222;2022-10-20T10:17:49;8.00;;;4.85;;
32323;SDS011;25666;44.350;9.222;2022-10-20T10:22:41;10.55;;;6.28;;
32323;SDS011;25666;44.350;9.222;2022-10-20T10:25:16;7.47;;;5.00;;
32323;SDS011;25666;44.350;9.222;2022-10-20T10:28:02;10.65;;;6.15;;
32323;SDS011;25666;44.350;9.222;2022-10-20T10:30:43;9.13;;;5.43;;
32323;SDS011;25666;44.350;9.222;2022-10-20T10:33:25;12.35;;;5.80;;
32323;SDS011;25666;44.350;9.222;2022-10-20T10:35:52;11.60;;;5.65;;
32323;SDS011;25666;44.350;9.222;2022-10-20T10:38:19;14.32;;;5.38;;
32323;SDS011;25666;44.350;9.222;2022-10-20T10:43:20;11.43;;;5.40;;
32323;SDS011;25666;44.350;9.222;2022-10-20T10:48:39;9.95;;;5.53;;
32323;SDS011;25666;44.350;9.222;2022-10-20T10:54:16;8.50;;;5.30;;
32323;SDS011;25666;44.350;9.222;2022-10-20T10:56:46;15.30;;;5.47;;
32323;SDS011;25666;44.350;9.222;2022-10-20T10:59:27;12.77;;;5.72;;
32323;SDS011;25666;44.350;9.222;2022-10-20T11:02:01;9.55;;;5.05;;
32323;SDS011;25666;44.350;9.222;2022-10-20T11:07:52;15.30;;;6.10;;
32323;SDS011;25666;44.350;9.222;2022-10-20T11:19:18;11.73;;;5.63;;
32323;SDS011;25666;44.350;9.222;2022-10-20T11:21:33;13.00;;;7.80;;
32323;SDS011;25666;44.350;9.222;2022-10-20T11:24:24;16.65;;;6.97;;
32323;SDS011;25666;44.350;9.222;2022-10-20T11:27:09;10.52;;;6.82;;
32323;SDS011;25666;44.350;9.222;2022-10-20T11:29:41;19.75;;;7.55;;
32323;SDS011;25666;44.350;9.222;2022-10-20T11:35:38;22.00;;;8.40;;
32323;SDS011;25666;44.350;9.222;2022-10-20T11:40:56;12.50;;;6.93;;
32323;SDS011;25666;44.350;9.222;2022-10-20T11:43:29;16.40;;;7.28;;
32323;SDS011;25666;44.350;9.222;2022-10-20T11:46:05;13.80;;;6.75;;
32323;SDS011;25666;44.350;9.222;2022-10-20T11:48:53;17.10;;;6.65;;
32323;SDS011;25666;44.350;9.222;2022-10-20T11:59:32;11.38;;;5.65;;
32323;SDS011;25666;44.350;9.222;2022-10-20T12:04:53;22.27;;;6.13;;
32323;SDS011;25666;44.350;9.222;2022-10-20T12:10:34;8.63;;;5.60;;
32323;SDS011;25666;44.350;9.222;2022-10-20T12:13:25;14.32;;;5.88;;
32323;SDS011;25666;44.350;9.222;2022-10-20T12:15:58;15.73;;;5.60;;
32323;SDS011;25666;44.350;9.222;2022-10-20T12:18:30;12.25;;;6.88;;
32323;SDS011;25666;44.350;9.222;2022-10-20T12:21:01;10.35;;;5.38;;
32323;SDS011;25666;44.350;9.222;2022-10-20T12:34:56;12.23;;;5.97;;
32323;SDS011;25666;44.350;9.222;2022-10-20T12:39:49;10.20;;;5.28;;
32323;SDS011;25666;44.350;9.222;2022-10-20T12:42:20;10.02;;;4.88;;
32323;SDS011;25666;44.350;9.222;2022-10-20T12:44:54;12.98;;;5.68;;
32323;SDS011;25666;44.350;9.222;2022-10-20T12:47:27;10.15;;;5.38;;
32323;SDS011;25666;44.350;9.222;2022-10-20T12:50:05;12.35;;;5.72;;
32323;SDS011;25666;44.350;9.222;2022-10-20T12:52:41;12.05;;;5.53;;
32323;SDS011;25666;44.350;9.222;2022-10-20T12:55:21;12.20;;;5.90;;
32323;SDS011;25666;44.350;9.222;2022-10-20T13:05:55;9.80;;;5.57;;
32323;SDS011;25666;44.350;9.222;2022-10-20T13:08:25;7.93;;;5.05;;
32323;SDS011;25666;44.350;9.222;2022-10-20T13:10:52;10.57;;;5.22;;
32323;SDS011;25666;44.350;9.222;2022-10-20T13:15:45;12.35;;;5.50;;
32323;SDS011;25666;44.350;9.222;2022-10-20T13:28:48;8.07;;;5.63;;
32323;SDS011;25666;44.350;9.222;2022-10-20T13:33:57;8.77;;;5.22;;
32323;SDS011;25666;44.350;9.222;2022-10-20T13:39:17;16.65;;;6.57;;
32323;SDS011;25666;44.350;9.222;2022-10-20T13:52:32;12.68;;;4.80;;
32323;SDS011;25666;44.350;9.222;2022-10-20T13:55:03;19.10;;;5.40;;
32323;SDS011;25666;44.350;9.222;2022-10-20T13:57:31;14.18;;;5.15;;
32323;SDS011;25666;44.350;9.222;2022-10-20T14:00:00;15.48;;;6.55;;
32323;SDS011;25666;44.350;9.222;2022-10-20T14:02:31;11.77;;;5.47;;
32323;SDS011;25666;44.350;9.222;2022-10-20T14:07:40;16.00;;;5.97;;
32323;SDS011;25666;44.350;9.222;2022-10-20T14:10:29;9.50;;;5.38;;
32323;SDS011;25666;44.350;9.222;2022-10-20T14:13:05;10.75;;;5.10;;
32323;SDS011;25666;44.350;9.222;2022-10-20T14:15:33;12.20;;;5.40;;
32323;SDS011;25666;44.350;9.222;2022-10-20T14:18:02;16.10;;;6.80;;
32323;SDS011;25666;44.350;9.222;2022-10-20T14:20:31;11.95;;;5.00;;
32323;SDS011;25666;44.350;9.222;2022-10-20T14:22:58;10.63;;;4.93;;
32323;SDS011;25666;44.350;9.222;2022-10-20T14:25:26;11.02;;;6.15;;
32323;SDS011;25666;44.350;9.222;2022-10-20T14:27:52;14.43;;;6.63;;
32323;SDS011;25666;44.350;9.222;2022-10-20T14:30:20;9.85;;;6.15;;
32323;SDS011;25666;44.350;9.222;2022-10-20T14:32:47;13.18;;;5.38;;
32323;SDS011;25666;44.350;9.222;2022-10-20T14:37:43;10.73;;;5.00;;
32323;SDS011;25666;44.350;9.222;2022-10-20T14:40:23;13.68;;;5.80;;
32323;SDS011;25666;44.350;9.222;2022-10-20T14:43:10;12.40;;;4.82;;
32323;SDS011;25666;44.350;9.222;2022-10-20T14:45:49;8.80;;;4.63;;
32323;SDS011;25666;44.350;9.222;2022-10-20T14:48:17;4.78;;;4.07;;
32323;SDS011;25666;44.350;9.222;2022-10-20T14:50:42;11.93;;;4.90;;
32323;SDS011;25666;44.350;9.222;2022-10-20T14:53:26;12.02;;;4.78;;
32323;SDS011;25666;44.350;9.222;2022-10-20T14:55:53;14.05;;;6.47;;
32323;SDS011;25666;44.350;9.222;2022-10-20T14:58:29;11.35;;;5.40;;
32323;SDS011;25666;44.350;9.222;2022-10-20T15:03:45;12.15;;;5.93;;
32323;SDS011;25666;44.350;9.222;2022-10-20T15:06:11;9.85;;;4.63;;
32323;SDS011;25666;44.350;9.222;2022-10-20T15:08:41;9.75;;;5.43;;
32323;SDS011;25666;44.350;9.222;2022-10-20T15:11:19;13.23;;;5.88;;
32323;SDS011;25666;44.350;9.222;2022-10-20T15:13:50;12.07;;;5.38;;
32323;SDS011;25666;44.350;9.222;2022-10-20T15:16:31;13.53;;;5.73;;
32323;SDS011;25666;44.350;9.222;2022-10-20T15:19:09;9.55;;;5.53;;
32323;SDS011;25666;44.350;9.222;2022-10-20T15:21:36;8.45;;;4.72;;
32323;SDS011;25666;44.350;9.222;2022-10-20T15:24:01;10.63;;;4.85;;
32323;SDS011;25666;44.350;9.222;2022-10-20T15:26:27;9.45;;;5.55;;
32323;SDS011;25666;44.350;9.222;2022-10-20T15:28:52;12.07;;;6.07;;
32323;SDS011;25666;44.350;9.222;2022-10-20T15:31:22;14.20;;;6.15;;
32323;SDS011;25666;44.350;9.222;2022-10-20T15:33:50;13.30;;;6.22;;
32323;SDS011;25666;44.350;9.222;2022-10-20T15:36:18;16.98;;;5.95;;
32323;SDS011;25666;44.350;9.222;2022-10-20T15:38:50;13.30;;;6.65;;
32323;SDS011;25666;44.350;9.222;2022-10-20T15:41:17;20.10;;;7.70;;
32323;SDS011;25666;44.350;9.222;2022-10-20T15:43:45;18.90;;;8.02;;
32323;SDS011;25666;44.350;9.222;2022-10-20T15:46:11;27.63;;;9.57;;
32323;SDS011;25666;44.350;9.222;2022-10-20T15:48:37;17.67;;;7.93;;
32323;SDS011;25666;44.350;9.222;2022-10-20T15:51:03;18.60;;;8.10;;
32323;SDS011;25666;44.350;9.222;2022-10-20T15:53:29;13.93;;;7.05;;
32323;SDS011;25666;44.350;9.222;2022-10-20T15:55:54;16.10;;;7.57;;
32323;SDS011;25666;44.350;9.222;2022-10-20T15:58:21;15.35;;;8.15;;
32323;SDS011;25666;44.350;9.222;2022-10-20T16:00:46;15.55;;;7.50;;
32323;SDS011;25666;44.350;9.222;2022-10-20T16:03:14;16.70;;;7.00;;
32323;SDS011;25666;44.350;9.222;2022-10-20T16:05:42;14.50;;;6.80;;
32323;SDS011;25666;44.350;9.222;2022-10-20T16:08:08;30.50;;;9.63;;
32323;SDS011;25666;44.350;9.222;2022-10-20T16:10:33;21.45;;;8.07;;
32323;SDS011;25666;44.350;9.222;2022-10-20T16:12:59;19.77;;;7.88;;
32323;SDS011;25666;44.350;9.222;2022-10-20T16:15:24;31.73;;;9.25;;
32323;SDS011;25666;44.350;9.222;2022-10-20T16:17:50;20.52;;;7.30;;
32323;SDS011;25666;44.350;9.222;2022-10-20T16:20:16;25.60;;;8.93;;
32323;SDS011;25666;44.350;9.222;2022-10-20T16:22:42;24.98;;;8.90;;
32323;SDS011;25666;44.350;9.222;2022-10-20T16:25:07;27.20;;;9.57;;
32323;SDS011;25666;44.350;9.222;2022-10-20T16:27:33;29.65;;;10.90;;
32323;SDS011;25666;44.350;9.222;2022-10-20T16:29:58;36.47;;;11.35;;
32323;SDS011;25666;44.350;9.222;2022-10-20T16:32:25;28.70;;;11.52;;
32323;SDS011;25666;44.350;9.222;2022-10-20T16:34:51;35.13;;;15.38;;
32323;SDS011;25666;44.350;9.222;2022-10-20T16:37:16;44.40;;;15.63;;
32323;SDS011;25666;44.350;9.222;2022-10-20T16:39:42;34.17;;;13.80;;
32323;SDS011;25666;44.350;9.222;2022-10-20T16:42:07;40.80;;;13.13;;
32323;SDS011;25666;44.350;9.222;2022-10-20T16:44:33;31.65;;;12.18;;
32323;SDS011;25666;44.350;9.222;2022-10-20T16:46:58;42.35;;;14.50;;
32323;SDS011;25666;44.350;9.222;2022-10-20T16:49:24;38.25;;;12.85;;
32323;SDS011;25666;44.350;9.222;2022-10-20T16:51:50;28.25;;;11.23;;
32323;SDS011;25666;44.350;9.222;2022-10-20T16:54:16;38.70;;;12.98;;
32323;SDS011;25666;44.350;9.222;2022-10-20T16:56:41;19.83;;;9.75;;
32323;SDS011;25666;44.350;9.222;2022-10-20T16:59:07;23.77;;;9.98;;
32323;SDS011;25666;44.350;9.222;2022-10-20T17:01:33;23.73;;;9.95;;
32323;SDS011;25666;44.350;9.222;2022-10-20T17:03:58;22.13;;;9.98;;
32323;SDS011;25666;44.350;9.222;2022-10-20T17:06:24;19.35;;;8.85;;
32323;SDS011;25666;44.350;9.222;2022-10-20T17:08:50;21.77;;;8.18;;